sensor_id;sensor_type;location;lat;lon;timestamp;P1;durP1;ratioP1;P2;durP2;ratioP2
53010;SDS011;42803;55.762;38.084;2023-06-05T00:00:05;7.43;;;3.65;;
53010;SDS011;42803;55.762;38.084;2023-06-05T00:02:39;11.17;;;4.10;;
53010;SDS011;42803;55.762;38.084;2023-06-05T00:05:10;9.52;;;3.70;;
53010;SDS011;42803;55.762;38.084;2023-06-05T00:07:39;9.52;;;3.60;;
53010;SDS011;42803;55.762;38.084;2023-06-05T00:10:09;6.80;;;3.10;;
53010;SDS011;42803;55.762;38.084;2023-06-05T00:12:40;8.65;;;3.15;;
53010;SDS011;42803;55.762;38.084;2023-06-05T00:15:10;6.18;;;3.70;;
53010;SDS011;42803;55.762;38.084;2023-06-05T00:17:39;7.72;;;3.30;;
53010;SDS011;42803;55.762;38.084;2023-06-05T00:20:09;6.85;;;3.05;;
53010;SDS011;42803;55.762;38.084;2023-06-05T00:22:39;8.93;;;3.55;;
53010;SDS011;42803;55.762;38.084;2023-06-05T00:25:11;10.40;;;3.40;;
53010;SDS011;42803;55.762;38.084;2023-06-05T00:27:41;7.28;;;3.53;;
53010;SDS011;42803;55.762;38.084;2023-06-05T00:30:10;6.18;;;2.97;;
53010;SDS011;42803;55.762;38.084;2023-06-05T00:32:41;6.40;;;3.08;;
53010;SDS011;42803;55.762;38.084;2023-06-05T00:35:11;6.80;;;3.10;;
53010;SDS011;42803;55.762;38.084;2023-06-05T00:37:42;7.78;;;3.45;;
53010;SDS011;42803;55.762;38.084;2023-06-05T00:40:14;5.93;;;3.38;;
53010;SDS011;42803;55.762;38.084;2023-06-05T00:42:43;6.03;;;3.35;;
53010;SDS011;42803;55.762;38.084;2023-06-05T00:45:12;6.68;;;3.35;;
53010;SDS011;42803;55.762;38.084;2023-06-05T00:47:41;6.07;;;3.00;;
53010;SDS011;42803;55.762;38.084;2023-06-05T00:50:13;7.03;;;3.45;;
53010;SDS011;42803;55.762;38.084;2023-06-05T00:52:44;5.90;;;3.63;;
53010;SDS011;42803;55.762;38.084;2023-06-05T00:55:15;7.30;;;3.88;;
53010;SDS011;42803;55.762;38.084;2023-06-05T00:57:44;9.02;;;3.97;;
53010;SDS011;42803;55.762;38.084;2023-06-05T01:00:14;7.88;;;3.33;;
53010;SDS011;42803;55.762;38.084;2023-06-05T01:02:44;7.13;;;3.10;;
53010;SDS011;42803;55.762;38.084;2023-06-05T01:05:14;6.97;;;2.92;;
53010;SDS011;42803;55.762;38.084;2023-06-05T01:07:44;5.45;;;3.13;;
53010;SDS011;42803;55.762;38.084;2023-06-05T01:10:15;5.35;;;3.38;;
53010;SDS011;42803;55.762;38.084;2023-06-05T01:12:46;7.78;;;3.40;;
53010;SDS011;42803;55.762;38.084;2023-06-05T01:15:22;6.65;;;2.95;;
53010;SDS011;42803;55.762;38.084;2023-06-05T01:17:56;4.37;;;2.90;;
53010;SDS011;42803;55.762;38.084;2023-06-05T01:20:34;6.68;;;3.08;;
53010;SDS011;42803;55.762;38.084;2023-06-05T01:23:06;7.60;;;3.17;;
53010;SDS011;42803;55.762;38.084;2023-06-05T01:25:35;6.13;;;3.08;;
53010;SDS011;42803;55.762;38.084;2023-06-05T01:28:08;7.85;;;2.88;;
53010;SDS011;42803;55.762;38.084;2023-06-05T01:30:44;5.93;;;2.60;;
53010;SDS011;42803;55.762;38.084;2023-06-05T01:33:29;6.57;;;2.60;;
53010;SDS011;42803;55.762;38.084;2023-06-05T01:36:09;5.00;;;2.38;;
53010;SDS011;42803;55.762;38.084;2023-06-05T01:38:41;6.70;;;2.60;;
53010;SDS011;42803;55.762;38.084;2023-06-05T01:41:12;5.43;;;2.70;;
53010;SDS011;42803;55.762;38.084;2023-06-05T01:43:43;5.65;;;3.20;;
53010;SDS011;42803;55.762;38.084;2023-06-05T01:46:18;8.90;;;2.65;;
53010;SDS011;42803;55.762;38.084;2023-06-05T01:48:49;6.13;;;3.03;;
53010;SDS011;42803;55.762;38.084;2023-06-05T01:51:20;6.25;;;2.83;;
53010;SDS011;42803;55.762;38.084;2023-06-05T01:53:50;13.73;;;3.60;;
53010;SDS011;42803;55.762;38.084;2023-06-05T01:56:20;8.73;;;2.58;;
53010;SDS011;42803;55.762;38.084;2023-06-05T01:58:51;7.68;;;3.38;;
53010;SDS011;42803;55.762;38.084;2023-06-05T02:01:21;5.63;;;3.15;;
53010;SDS011;42803;55.762;38.084;2023-06-05T02:03:51;9.07;;;3.13;;
53010;SDS011;42803;55.762;38.084;2023-06-05T02:06:21;6.00;;;2.85;;
53010;SDS011;42803;55.762;38.084;2023-06-05T02:08:51;5.35;;;3.22;;
53010;SDS011;42803;55.762;38.084;2023-06-05T02:11:21;6.65;;;3.22;;
53010;SDS011;42803;55.762;38.084;2023-06-05T02:13:50;7.60;;;3.38;;
53010;SDS011;42803;55.762;38.084;2023-06-05T02:16:20;6.07;;;3.45;;
53010;SDS011;42803;55.762;38.084;2023-06-05T02:18:50;8.60;;;3.20;;
53010;SDS011;42803;55.762;38.084;2023-06-05T02:21:20;6.10;;;3.00;;
53010;SDS011;42803;55.762;38.084;2023-06-05T02:23:49;5.20;;;2.42;;
53010;SDS011;42803;55.762;38.084;2023-06-05T02:26:20;5.90;;;2.67;;
53010;SDS011;42803;55.762;38.084;2023-06-05T02:28:49;6.13;;;2.50;;
53010;SDS011;42803;55.762;38.084;2023-06-05T02:31:21;6.90;;;3.05;;
53010;SDS011;42803;55.762;38.084;2023-06-05T02:33:54;4.65;;;2.70;;
53010;SDS011;42803;55.762;38.084;2023-06-05T02:36:23;5.03;;;2.58;;
53010;SDS011;42803;55.762;38.084;2023-06-05T02:38:53;6.03;;;2.45;;
53010;SDS011;42803;55.762;38.084;2023-06-05T02:41:23;6.45;;;3.25;;
53010;SDS011;42803;55.762;38.084;2023-06-05T02:43:54;5.93;;;2.90;;
53010;SDS011;42803;55.762;38.084;2023-06-05T02:46:23;6.68;;;2.83;;
53010;SDS011;42803;55.762;38.084;2023-06-05T02:48:54;5.97;;;2.65;;
53010;SDS011;42803;55.762;38.084;2023-06-05T02:51:25;7.90;;;3.17;;
53010;SDS011;42803;55.762;38.084;2023-06-05T02:53:55;4.30;;;2.97;;
53010;SDS011;42803;55.762;38.084;2023-06-05T02:56:26;5.80;;;2.55;;
53010;SDS011;42803;55.762;38.084;2023-06-05T02:58:55;8.20;;;2.90;;
53010;SDS011;42803;55.762;38.084;2023-06-05T03:01:26;8.52;;;2.90;;
53010;SDS011;42803;55.762;38.084;2023-06-05T03:04:06;6.65;;;2.97;;
53010;SDS011;42803;55.762;38.084;2023-06-05T03:06:37;6.13;;;2.75;;
53010;SDS011;42803;55.762;38.084;2023-06-05T03:09:11;7.03;;;2.60;;
53010;SDS011;42803;55.762;38.084;2023-06-05T03:11:41;9.38;;;2.80;;
53010;SDS011;42803;55.762;38.084;2023-06-05T03:14:11;6.78;;;3.05;;
53010;SDS011;42803;55.762;38.084;2023-06-05T03:16:40;4.55;;;2.67;;
53010;SDS011;42803;55.762;38.084;2023-06-05T03:19:12;6.00;;;2.53;;
53010;SDS011;42803;55.762;38.084;2023-06-05T03:21:44;4.05;;;2.70;;
53010;SDS011;42803;55.762;38.084;2023-06-05T03:24:15;6.28;;;2.80;;
53010;SDS011;42803;55.762;38.084;2023-06-05T03:26:51;8.27;;;3.45;;
53010;SDS011;42803;55.762;38.084;2023-06-05T03:29:21;7.13;;;3.25;;
53010;SDS011;42803;55.762;38.084;2023-06-05T03:31:50;6.53;;;2.78;;
53010;SDS011;42803;55.762;38.084;2023-06-05T03:34:19;7.50;;;2.83;;
53010;SDS011;42803;55.762;38.084;2023-06-05T03:36:50;10.05;;;2.88;;
53010;SDS011;42803;55.762;38.084;2023-06-05T03:39:19;8.43;;;2.90;;
53010;SDS011;42803;55.762;38.084;2023-06-05T03:41:48;6.65;;;3.05;;
53010;SDS011;42803;55.762;38.084;2023-06-05T03:44:19;9.60;;;3.40;;
53010;SDS011;42803;55.762;38.084;2023-06-05T03:46:50;7.28;;;2.92;;
53010;SDS011;42803;55.762;38.084;2023-06-05T03:49:19;6.97;;;2.85;;
53010;SDS011;42803;55.762;38.084;2023-06-05T03:51:51;6.93;;;3.47;;
53010;SDS011;42803;55.762;38.084;2023-06-05T03:54:20;5.90;;;3.08;;
53010;SDS011;42803;55.762;38.084;2023-06-05T03:56:53;7.60;;;3.03;;
53010;SDS011;42803;55.762;38.084;2023-06-05T03:59:24;7.60;;;3.10;;
53010;SDS011;42803;55.762;38.084;2023-06-05T04:01:59;10.82;;;2.78;;
53010;SDS011;42803;55.762;38.084;2023-06-05T04:04:29;6.63;;;3.50;;
53010;SDS011;42803;55.762;38.084;2023-06-05T04:06:59;3.47;;;2.47;;
53010;SDS011;42803;55.762;38.084;2023-06-05T04:09:29;8.48;;;3.25;;
53010;SDS011;42803;55.762;38.084;2023-06-05T04:11:59;4.07;;;2.78;;
53010;SDS011;42803;55.762;38.084;2023-06-05T04:14:31;6.57;;;2.95;;
53010;SDS011;42803;55.762;38.084;2023-06-05T04:17:00;9.80;;;3.25;;
53010;SDS011;42803;55.762;38.084;2023-06-05T04:19:30;6.28;;;2.90;;
53010;SDS011;42803;55.762;38.084;2023-06-05T04:22:00;8.82;;;3.25;;
53010;SDS011;42803;55.762;38.084;2023-06-05T04:24:32;8.65;;;2.92;;
53010;SDS011;42803;55.762;38.084;2023-06-05T04:27:01;7.75;;;2.70;;
53010;SDS011;42803;55.762;38.084;2023-06-05T04:29:32;5.75;;;2.67;;
53010;SDS011;42803;55.762;38.084;2023-06-05T04:32:01;9.30;;;3.22;;
53010;SDS011;42803;55.762;38.084;2023-06-05T04:34:31;4.68;;;2.00;;
53010;SDS011;42803;55.762;38.084;2023-06-05T04:37:00;5.95;;;1.98;;
53010;SDS011;42803;55.762;38.084;2023-06-05T04:39:30;5.88;;;1.65;;
53010;SDS011;42803;55.762;38.084;2023-06-05T04:42:00;3.50;;;1.45;;
53010;SDS011;42803;55.762;38.084;2023-06-05T04:44:45;4.75;;;1.70;;
53010;SDS011;42803;55.762;38.084;2023-06-05T04:47:21;3.63;;;1.75;;
53010;SDS011;42803;55.762;38.084;2023-06-05T04:49:51;4.35;;;1.98;;
53010;SDS011;42803;55.762;38.084;2023-06-05T04:52:22;9.07;;;3.20;;
53010;SDS011;42803;55.762;38.084;2023-06-05T04:54:52;4.90;;;2.42;;
53010;SDS011;42803;55.762;38.084;2023-06-05T04:57:21;6.65;;;2.80;;
53010;SDS011;42803;55.762;38.084;2023-06-05T04:59:53;5.78;;;2.75;;
53010;SDS011;42803;55.762;38.084;2023-06-05T05:02:22;13.98;;;3.40;;
53010;SDS011;42803;55.762;38.084;2023-06-05T05:04:52;9.70;;;3.05;;
53010;SDS011;42803;55.762;38.084;2023-06-05T05:07:21;13.00;;;3.42;;
53010;SDS011;42803;55.762;38.084;2023-06-05T05:09:54;16.08;;;3.05;;
53010;SDS011;42803;55.762;38.084;2023-06-05T05:12:23;12.95;;;3.03;;
53010;SDS011;42803;55.762;38.084;2023-06-05T05:14:54;8.15;;;2.78;;
53010;SDS011;42803;55.762;38.084;2023-06-05T05:17:23;12.00;;;3.17;;
53010;SDS011;42803;55.762;38.084;2023-06-05T05:19:54;18.65;;;3.90;;
53010;SDS011;42803;55.762;38.084;2023-06-05T05:22:32;7.82;;;2.70;;
53010;SDS011;42803;55.762;38.084;2023-06-05T05:25:02;13.32;;;2.28;;
53010;SDS011;42803;55.762;38.084;2023-06-05T05:27:32;3.83;;;1.90;;
53010;SDS011;42803;55.762;38.084;2023-06-05T05:30:03;2.38;;;1.55;;
53010;SDS011;42803;55.762;38.084;2023-06-05T05:32:34;3.53;;;1.33;;
53010;SDS011;42803;55.762;38.084;2023-06-05T05:35:05;5.88;;;1.38;;
53010;SDS011;42803;55.762;38.084;2023-06-05T05:37:35;3.05;;;1.55;;
53010;SDS011;42803;55.762;38.084;2023-06-05T05:40:04;3.80;;;1.38;;
53010;SDS011;42803;55.762;38.084;2023-06-05T05:42:35;3.30;;;1.50;;
53010;SDS011;42803;55.762;38.084;2023-06-05T05:45:06;1.88;;;1.33;;
53010;SDS011;42803;55.762;38.084;2023-06-05T05:47:36;4.57;;;1.45;;
53010;SDS011;42803;55.762;38.084;2023-06-05T05:50:06;2.67;;;1.13;;
53010;SDS011;42803;55.762;38.084;2023-06-05T05:52:35;2.53;;;1.10;;
53010;SDS011;42803;55.762;38.084;2023-06-05T05:55:05;2.97;;;1.00;;
53010;SDS011;42803;55.762;38.084;2023-06-05T05:57:35;3.72;;;1.10;;
53010;SDS011;42803;55.762;38.084;2023-06-05T06:00:06;1.30;;;1.20;;
53010;SDS011;42803;55.762;38.084;2023-06-05T06:02:40;2.28;;;1.40;;
53010;SDS011;42803;55.762;38.084;2023-06-05T06:05:10;3.35;;;1.15;;
53010;SDS011;42803;55.762;38.084;2023-06-05T06:07:39;4.10;;;1.10;;
53010;SDS011;42803;55.762;38.084;2023-06-05T06:10:10;1.55;;;1.15;;
53010;SDS011;42803;55.762;38.084;2023-06-05T06:12:41;2.83;;;1.33;;
53010;SDS011;42803;55.762;38.084;2023-06-05T06:15:14;2.63;;;1.30;;
53010;SDS011;42803;55.762;38.084;2023-06-05T06:17:43;1.85;;;1.27;;
53010;SDS011;42803;55.762;38.084;2023-06-05T06:20:12;2.08;;;1.48;;
53010;SDS011;42803;55.762;38.084;2023-06-05T06:22:43;4.78;;;1.30;;
53010;SDS011;42803;55.762;38.084;2023-06-05T06:25:12;4.05;;;1.55;;
53010;SDS011;42803;55.762;38.084;2023-06-05T06:27:43;2.95;;;1.30;;
53010;SDS011;42803;55.762;38.084;2023-06-05T06:30:17;2.00;;;1.30;;
53010;SDS011;42803;55.762;38.084;2023-06-05T06:32:47;7.88;;;1.30;;
53010;SDS011;42803;55.762;38.084;2023-06-05T06:35:16;2.20;;;1.50;;
53010;SDS011;42803;55.762;38.084;2023-06-05T06:37:47;4.82;;;1.73;;
53010;SDS011;42803;55.762;38.084;2023-06-05T06:40:17;2.30;;;1.45;;
53010;SDS011;42803;55.762;38.084;2023-06-05T06:42:55;1.95;;;1.25;;
53010;SDS011;42803;55.762;38.084;2023-06-05T06:45:56;4.00;;;1.77;;
53010;SDS011;42803;55.762;38.084;2023-06-05T06:48:25;1.95;;;1.48;;
53010;SDS011;42803;55.762;38.084;2023-06-05T06:50:54;2.38;;;1.30;;
53010;SDS011;42803;55.762;38.084;2023-06-05T06:53:23;2.95;;;1.83;;
53010;SDS011;42803;55.762;38.084;2023-06-05T06:55:52;2.65;;;1.38;;
53010;SDS011;42803;55.762;38.084;2023-06-05T06:58:21;1.33;;;1.10;;
53010;SDS011;42803;55.762;38.084;2023-06-05T07:00:51;4.43;;;1.40;;
53010;SDS011;42803;55.762;38.084;2023-06-05T07:03:22;4.85;;;1.60;;
53010;SDS011;42803;55.762;38.084;2023-06-05T07:05:51;2.83;;;1.60;;
53010;SDS011;42803;55.762;38.084;2023-06-05T07:08:39;3.50;;;1.48;;
53010;SDS011;42803;55.762;38.084;2023-06-05T07:11:27;3.90;;;1.80;;
53010;SDS011;42803;55.762;38.084;2023-06-05T07:14:11;5.88;;;1.77;;
53010;SDS011;42803;55.762;38.084;2023-06-05T07:16:40;3.28;;;1.70;;
53010;SDS011;42803;55.762;38.084;2023-06-05T07:19:10;5.55;;;1.83;;
53010;SDS011;42803;55.762;38.084;2023-06-05T07:21:40;4.78;;;1.77;;
53010;SDS011;42803;55.762;38.084;2023-06-05T07:24:10;5.57;;;1.80;;
53010;SDS011;42803;55.762;38.084;2023-06-05T07:26:39;2.65;;;1.75;;
53010;SDS011;42803;55.762;38.084;2023-06-05T07:29:08;3.78;;;1.90;;
53010;SDS011;42803;55.762;38.084;2023-06-05T07:31:37;2.85;;;2.15;;
53010;SDS011;42803;55.762;38.084;2023-06-05T07:34:07;2.90;;;1.55;;
53010;SDS011;42803;55.762;38.084;2023-06-05T07:36:37;3.25;;;1.70;;
53010;SDS011;42803;55.762;38.084;2023-06-05T07:39:07;5.25;;;1.90;;
53010;SDS011;42803;55.762;38.084;2023-06-05T07:41:37;7.38;;;2.10;;
53010;SDS011;42803;55.762;38.084;2023-06-05T07:44:07;4.15;;;1.50;;
53010;SDS011;42803;55.762;38.084;2023-06-05T07:46:39;5.25;;;1.38;;
53010;SDS011;42803;55.762;38.084;2023-06-05T07:49:09;5.15;;;1.83;;
53010;SDS011;42803;55.762;38.084;2023-06-05T07:51:40;5.95;;;2.15;;
53010;SDS011;42803;55.762;38.084;2023-06-05T07:54:10;3.53;;;1.85;;
53010;SDS011;42803;55.762;38.084;2023-06-05T07:56:39;5.50;;;2.22;;
53010;SDS011;42803;55.762;38.084;2023-06-05T07:59:09;2.30;;;1.70;;
53010;SDS011;42803;55.762;38.084;2023-06-05T08:01:42;3.55;;;1.73;;
53010;SDS011;42803;55.762;38.084;2023-06-05T08:04:12;4.90;;;1.98;;
53010;SDS011;42803;55.762;38.084;2023-06-05T08:06:44;3.95;;;1.60;;
53010;SDS011;42803;55.762;38.084;2023-06-05T08:09:13;2.65;;;1.30;;
53010;SDS011;42803;55.762;38.084;2023-06-05T08:11:42;3.10;;;1.60;;
53010;SDS011;42803;55.762;38.084;2023-06-05T08:14:12;4.60;;;1.75;;
53010;SDS011;42803;55.762;38.084;2023-06-05T08:16:41;3.20;;;2.00;;
53010;SDS011;42803;55.762;38.084;2023-06-05T08:19:10;2.53;;;1.30;;
53010;SDS011;42803;55.762;38.084;2023-06-05T08:21:39;4.32;;;1.42;;
53010;SDS011;42803;55.762;38.084;2023-06-05T08:24:10;3.88;;;1.50;;
53010;SDS011;42803;55.762;38.084;2023-06-05T08:26:39;3.70;;;1.35;;
53010;SDS011;42803;55.762;38.084;2023-06-05T08:29:08;3.60;;;1.67;;
53010;SDS011;42803;55.762;38.084;2023-06-05T08:31:39;9.02;;;3.65;;
53010;SDS011;42803;55.762;38.084;2023-06-05T08:34:09;2.83;;;1.60;;
53010;SDS011;42803;55.762;38.084;2023-06-05T08:36:38;6.68;;;1.90;;
53010;SDS011;42803;55.762;38.084;2023-06-05T08:39:07;5.15;;;1.58;;
53010;SDS011;42803;55.762;38.084;2023-06-05T08:41:38;3.20;;;1.58;;
53010;SDS011;42803;55.762;38.084;2023-06-05T08:44:10;4.32;;;1.70;;
53010;SDS011;42803;55.762;38.084;2023-06-05T08:46:39;6.03;;;1.70;;
53010;SDS011;42803;55.762;38.084;2023-06-05T08:49:10;2.92;;;1.58;;
53010;SDS011;42803;55.762;38.084;2023-06-05T08:51:42;4.72;;;1.55;;
53010;SDS011;42803;55.762;38.084;2023-06-05T08:54:14;9.98;;;3.55;;
53010;SDS011;42803;55.762;38.084;2023-06-05T08:56:44;2.85;;;1.30;;
53010;SDS011;42803;55.762;38.084;2023-06-05T08:59:17;3.25;;;1.55;;
53010;SDS011;42803;55.762;38.084;2023-06-05T09:01:48;4.28;;;1.65;;
53010;SDS011;42803;55.762;38.084;2023-06-05T09:04:18;2.20;;;1.60;;
53010;SDS011;42803;55.762;38.084;2023-06-05T09:06:47;6.00;;;1.70;;
53010;SDS011;42803;55.762;38.084;2023-06-05T09:09:20;6.03;;;1.88;;
53010;SDS011;42803;55.762;38.084;2023-06-05T09:12:00;4.82;;;1.35;;
53010;SDS011;42803;55.762;38.084;2023-06-05T09:14:30;4.65;;;1.60;;
53010;SDS011;42803;55.762;38.084;2023-06-05T09:17:01;4.93;;;1.50;;
53010;SDS011;42803;55.762;38.084;2023-06-05T09:19:37;3.45;;;2.05;;
53010;SDS011;42803;55.762;38.084;2023-06-05T09:22:07;3.45;;;1.65;;
53010;SDS011;42803;55.762;38.084;2023-06-05T09:24:38;3.90;;;1.52;;
53010;SDS011;42803;55.762;38.084;2023-06-05T09:27:09;3.78;;;2.08;;
53010;SDS011;42803;55.762;38.084;2023-06-05T09:29:40;3.95;;;1.67;;
53010;SDS011;42803;55.762;38.084;2023-06-05T09:32:16;4.65;;;1.73;;
53010;SDS011;42803;55.762;38.084;2023-06-05T09:34:54;2.58;;;1.80;;
53010;SDS011;42803;55.762;38.084;2023-06-05T09:37:33;3.55;;;1.60;;
53010;SDS011;42803;55.762;38.084;2023-06-05T09:40:05;3.05;;;1.58;;
53010;SDS011;42803;55.762;38.084;2023-06-05T09:42:43;6.20;;;1.85;;
53010;SDS011;42803;55.762;38.084;2023-06-05T09:45:12;3.00;;;1.17;;
53010;SDS011;42803;55.762;38.084;2023-06-05T09:47:42;3.00;;;1.20;;
53010;SDS011;42803;55.762;38.084;2023-06-05T09:50:20;4.45;;;1.30;;
53010;SDS011;42803;55.762;38.084;2023-06-05T09:52:50;3.55;;;1.60;;
53010;SDS011;42803;55.762;38.084;2023-06-05T09:55:22;2.90;;;1.38;;
53010;SDS011;42803;55.762;38.084;2023-06-05T09:57:56;3.08;;;1.40;;
53010;SDS011;42803;55.762;38.084;2023-06-05T10:00:32;4.82;;;1.42;;
53010;SDS011;42803;55.762;38.084;2023-06-05T10:03:04;4.03;;;1.20;;
53010;SDS011;42803;55.762;38.084;2023-06-05T10:05:38;1.60;;;1.15;;
53010;SDS011;42803;55.762;38.084;2023-06-05T10:08:10;2.85;;;1.30;;
53010;SDS011;42803;55.762;38.084;2023-06-05T10:10:42;4.10;;;1.30;;
53010;SDS011;42803;55.762;38.084;2023-06-05T10:13:12;1.73;;;1.23;;
53010;SDS011;42803;55.762;38.084;2023-06-05T10:15:44;3.38;;;1.08;;
53010;SDS011;42803;55.762;38.084;2023-06-05T10:18:14;1.70;;;1.20;;
53010;SDS011;42803;55.762;38.084;2023-06-05T10:20:44;4.32;;;1.00;;
53010;SDS011;42803;55.762;38.084;2023-06-05T10:23:15;2.22;;;1.10;;
53010;SDS011;42803;55.762;38.084;2023-06-05T10:25:50;1.38;;;0.80;;
53010;SDS011;42803;55.762;38.084;2023-06-05T10:28:26;3.78;;;1.00;;
53010;SDS011;42803;55.762;38.084;2023-06-05T10:31:13;2.05;;;0.95;;
53010;SDS011;42803;55.762;38.084;2023-06-05T10:33:56;4.60;;;1.27;;
53010;SDS011;42803;55.762;38.084;2023-06-05T10:39:55;5.75;;;1.13;;
53010;SDS011;42803;55.762;38.084;2023-06-05T10:42:27;2.65;;;1.20;;
53010;SDS011;42803;55.762;38.084;2023-06-05T10:44:57;3.45;;;1.35;;
53010;SDS011;42803;55.762;38.084;2023-06-05T10:50:19;3.03;;;1.27;;
53010;SDS011;42803;55.762;38.084;2023-06-05T10:52:53;2.38;;;1.23;;
53010;SDS011;42803;55.762;38.084;2023-06-05T10:55:25;3.63;;;1.75;;
53010;SDS011;42803;55.762;38.084;2023-06-05T10:58:03;1.80;;;1.08;;
53010;SDS011;42803;55.762;38.084;2023-06-05T11:03:58;2.92;;;1.20;;
53010;SDS011;42803;55.762;38.084;2023-06-05T11:06:29;7.00;;;1.38;;
53010;SDS011;42803;55.762;38.084;2023-06-05T11:09:11;2.35;;;0.98;;
53010;SDS011;42803;55.762;38.084;2023-06-05T11:11:55;3.30;;;1.40;;
53010;SDS011;42803;55.762;38.084;2023-06-05T11:14:42;2.80;;;1.05;;
53010;SDS011;42803;55.762;38.084;2023-06-05T11:17:28;1.23;;;0.95;;
53010;SDS011;42803;55.762;38.084;2023-06-05T11:19:58;3.70;;;1.00;;
53010;SDS011;42803;55.762;38.084;2023-06-05T11:22:30;2.60;;;1.20;;
53010;SDS011;42803;55.762;38.084;2023-06-05T11:27:55;2.05;;;1.30;;
53010;SDS011;42803;55.762;38.084;2023-06-05T11:30:29;3.10;;;1.35;;
53010;SDS011;42803;55.762;38.084;2023-06-05T11:33:06;5.05;;;1.48;;
53010;SDS011;42803;55.762;38.084;2023-06-05T11:35:36;4.80;;;1.60;;
53010;SDS011;42803;55.762;38.084;2023-06-05T11:38:09;2.55;;;1.63;;
53010;SDS011;42803;55.762;38.084;2023-06-05T11:40:39;2.17;;;1.50;;
53010;SDS011;42803;55.762;38.084;2023-06-05T11:43:09;2.58;;;1.55;;
53010;SDS011;42803;55.762;38.084;2023-06-05T11:45:42;2.78;;;1.60;;
53010;SDS011;42803;55.762;38.084;2023-06-05T11:48:18;4.78;;;1.55;;
53010;SDS011;42803;55.762;38.084;2023-06-05T11:50:55;4.38;;;2.35;;
53010;SDS011;42803;55.762;38.084;2023-06-05T11:53:26;5.13;;;1.73;;
53010;SDS011;42803;55.762;38.084;2023-06-05T11:55:56;2.67;;;2.13;;
53010;SDS011;42803;55.762;38.084;2023-06-05T11:58:37;2.88;;;1.42;;
53010;SDS011;42803;55.762;38.084;2023-06-05T12:01:09;2.80;;;1.40;;
53010;SDS011;42803;55.762;38.084;2023-06-05T12:06:13;4.03;;;1.52;;
53010;SDS011;42803;55.762;38.084;2023-06-05T12:08:44;4.32;;;1.95;;
53010;SDS011;42803;55.762;38.084;2023-06-05T12:11:20;2.38;;;1.42;;
53010;SDS011;42803;55.762;38.084;2023-06-05T12:13:51;4.05;;;1.67;;
53010;SDS011;42803;55.762;38.084;2023-06-05T12:16:31;2.58;;;1.50;;
53010;SDS011;42803;55.762;38.084;2023-06-05T12:19:02;2.47;;;1.73;;
53010;SDS011;42803;55.762;38.084;2023-06-05T12:21:43;3.58;;;1.55;;
53010;SDS011;42803;55.762;38.084;2023-06-05T12:24:14;3.50;;;1.45;;
53010;SDS011;42803;55.762;38.084;2023-06-05T12:26:50;1.88;;;1.08;;
53010;SDS011;42803;55.762;38.084;2023-06-05T12:29:24;3.92;;;1.60;;
53010;SDS011;42803;55.762;38.084;2023-06-05T12:31:57;2.88;;;1.25;;
53010;SDS011;42803;55.762;38.084;2023-06-05T12:34:40;5.95;;;1.60;;
53010;SDS011;42803;55.762;38.084;2023-06-05T12:37:21;3.40;;;1.58;;
53010;SDS011;42803;55.762;38.084;2023-06-05T12:39:53;1.85;;;1.35;;
53010;SDS011;42803;55.762;38.084;2023-06-05T12:42:22;3.42;;;1.70;;
53010;SDS011;42803;55.762;38.084;2023-06-05T12:44:51;3.90;;;1.60;;
53010;SDS011;42803;55.762;38.084;2023-06-05T12:47:22;3.55;;;1.52;;
53010;SDS011;42803;55.762;38.084;2023-06-05T12:49:52;1.67;;;1.20;;
53010;SDS011;42803;55.762;38.084;2023-06-05T12:52:21;3.47;;;1.60;;
53010;SDS011;42803;55.762;38.084;2023-06-05T12:54:53;4.03;;;1.65;;
53010;SDS011;42803;55.762;38.084;2023-06-05T12:57:24;5.32;;;1.50;;
53010;SDS011;42803;55.762;38.084;2023-06-05T12:59:53;7.68;;;2.10;;
53010;SDS011;42803;55.762;38.084;2023-06-05T13:02:29;4.13;;;1.55;;
53010;SDS011;42803;55.762;38.084;2023-06-05T13:05:01;2.00;;;1.50;;
53010;SDS011;42803;55.762;38.084;2023-06-05T13:07:30;4.57;;;1.90;;
53010;SDS011;42803;55.762;38.084;2023-06-05T13:10:00;4.70;;;1.70;;
53010;SDS011;42803;55.762;38.084;2023-06-05T13:12:30;2.83;;;1.65;;
53010;SDS011;42803;55.762;38.084;2023-06-05T13:14:59;3.60;;;2.00;;
53010;SDS011;42803;55.762;38.084;2023-06-05T13:17:34;4.15;;;2.08;;
53010;SDS011;42803;55.762;38.084;2023-06-05T13:20:05;3.08;;;1.70;;
53010;SDS011;42803;55.762;38.084;2023-06-05T13:22:36;5.55;;;2.17;;
53010;SDS011;42803;55.762;38.084;2023-06-05T13:25:06;6.32;;;1.95;;
53010;SDS011;42803;55.762;38.084;2023-06-05T13:27:36;4.05;;;1.85;;
53010;SDS011;42803;55.762;38.084;2023-06-05T13:30:06;3.33;;;2.20;;
53010;SDS011;42803;55.762;38.084;2023-06-05T13:32:38;2.83;;;1.95;;
53010;SDS011;42803;55.762;38.084;2023-06-05T13:35:09;2.83;;;1.50;;
53010;SDS011;42803;55.762;38.084;2023-06-05T13:37:38;5.50;;;1.35;;
53010;SDS011;42803;55.762;38.084;2023-06-05T13:40:09;3.00;;;1.55;;
53010;SDS011;42803;55.762;38.084;2023-06-05T13:42:39;2.95;;;1.42;;
53010;SDS011;42803;55.762;38.084;2023-06-05T13:45:09;2.05;;;1.00;;
53010;SDS011;42803;55.762;38.084;2023-06-05T13:47:40;4.25;;;1.10;;
53010;SDS011;42803;55.762;38.084;2023-06-05T13:50:09;2.60;;;1.25;;
53010;SDS011;42803;55.762;38.084;2023-06-05T13:52:39;3.85;;;1.20;;
53010;SDS011;42803;55.762;38.084;2023-06-05T13:55:08;5.15;;;1.42;;
53010;SDS011;42803;55.762;38.084;2023-06-05T13:57:37;3.65;;;1.67;;
53010;SDS011;42803;55.762;38.084;2023-06-05T14:00:07;4.05;;;1.40;;
53010;SDS011;42803;55.762;38.084;2023-06-05T14:02:37;4.15;;;1.63;;
53010;SDS011;42803;55.762;38.084;2023-06-05T14:05:08;2.67;;;1.10;;
53010;SDS011;42803;55.762;38.084;2023-06-05T14:07:39;2.63;;;1.20;;
53010;SDS011;42803;55.762;38.084;2023-06-05T14:10:17;3.58;;;1.20;;
53010;SDS011;42803;55.762;38.084;2023-06-05T14:12:49;4.18;;;1.45;;
53010;SDS011;42803;55.762;38.084;2023-06-05T14:15:19;2.72;;;1.52;;
53010;SDS011;42803;55.762;38.084;2023-06-05T14:17:49;2.53;;;1.20;;
53010;SDS011;42803;55.762;38.084;2023-06-05T14:20:21;2.40;;;1.48;;
53010;SDS011;42803;55.762;38.084;2023-06-05T14:22:51;2.03;;;1.30;;
53010;SDS011;42803;55.762;38.084;2023-06-05T14:25:20;3.85;;;1.70;;
53010;SDS011;42803;55.762;38.084;2023-06-05T14:27:49;3.83;;;1.60;;
53010;SDS011;42803;55.762;38.084;2023-06-05T14:30:19;3.03;;;1.50;;
53010;SDS011;42803;55.762;38.084;2023-06-05T14:32:49;3.95;;;1.35;;
53010;SDS011;42803;55.762;38.084;2023-06-05T14:35:18;6.38;;;1.38;;
53010;SDS011;42803;55.762;38.084;2023-06-05T14:37:49;2.05;;;1.13;;
53010;SDS011;42803;55.762;38.084;2023-06-05T14:40:19;1.73;;;1.20;;
53010;SDS011;42803;55.762;38.084;2023-06-05T14:42:48;4.25;;;1.80;;
53010;SDS011;42803;55.762;38.084;2023-06-05T14:45:18;2.20;;;1.30;;
53010;SDS011;42803;55.762;38.084;2023-06-05T14:47:47;5.70;;;2.00;;
53010;SDS011;42803;55.762;38.084;2023-06-05T14:50:18;2.45;;;1.30;;
53010;SDS011;42803;55.762;38.084;2023-06-05T14:52:47;4.03;;;1.42;;
53010;SDS011;42803;55.762;38.084;2023-06-05T14:55:18;2.08;;;1.20;;
53010;SDS011;42803;55.762;38.084;2023-06-05T14:57:48;4.78;;;1.42;;
53010;SDS011;42803;55.762;38.084;2023-06-05T15:00:17;1.65;;;1.27;;
53010;SDS011;42803;55.762;38.084;2023-06-05T15:02:47;5.22;;;1.55;;
53010;SDS011;42803;55.762;38.084;2023-06-05T15:05:34;2.67;;;1.30;;
53010;SDS011;42803;55.762;38.084;2023-06-05T15:08:04;4.20;;;1.50;;
53010;SDS011;42803;55.762;38.084;2023-06-05T15:10:36;2.08;;;1.27;;
53010;SDS011;42803;55.762;38.084;2023-06-05T15:13:06;2.40;;;1.60;;